• Join FlightAware (Why Join?)
  • Login
  • US Flag 
09:44AM EDT


 

Airport Tracker/Info


-or-


 

Live Flight TrackerFlight Track Log ✈ ASQ5958 ✈ 14-Apr-2013 ✈ KPIT - KDEN

Flight Track Log - Related Links

Times and Time Zones

All times are in EDT time to prevent confusion due to time zone crossing. See the ASQ5958 flight status page for this flight to view local times or setup timezone preferences in your user account.

Time Position Orientation Groundspeed Altitude Reporting Facility
EDT Latitude Longitude Course Direction KTS MPH feet Rate Location/Type
07:52PM 40.5044 -80.2908 272° West 179 206 2,100  Level Cleveland Center
07:53PM 40.5069 -80.3700 272° West 184 212 4,000 2,100 Climbing Cleveland Center
07:54PM 40.5217 -80.4603 282° West 222 255 6,400 2,400 Climbing Cleveland Center
07:55PM 40.5425 -80.5503 287° West 248 285 8,800 2,160 Climbing Cleveland Center
07:56PM 40.5653 -80.6458 287° West 261 300 10,800 1,380 Climbing Cleveland Center
07:57PM 40.5881 -80.7525 286° West 282 325 11,600 1,140 Climbing Cleveland Center
07:58PM 40.6172 -80.8703 288° West 315 362 13,100 1,500 Climbing Cleveland Center
07:59PM 40.6439 -80.9936 286° West 338 389 14,600 1,440 Climbing Cleveland Center
08:00PM 40.6703 -81.1225 285° West 362 417 16,000 1,440 Climbing Cleveland Center
08:01PM 40.6989 -81.2458 287° West 362 417 17,500 1,440 Climbing Cleveland Center
08:02PM 40.7272 -81.3694 287° West 362 417 18,900 1,380 Climbing Cleveland Center
08:03PM 40.7597 -81.4931 289° West 362 417 20,300 1,200 Climbing Cleveland Center
08:04PM 40.7942 -81.6006 293° West 362 417 21,300 1,080 Climbing Cleveland Center
08:05PM 40.8347 -81.7247 293° West 367 422 22,500 1,200 Climbing Cleveland Center
08:06PM 40.8753 -81.8517 293° West 373 429 23,700 1,200 Climbing Cleveland Center
08:07PM 40.9175 -81.9761 294° West 373 429 24,900 1,140 Climbing Cleveland Center
08:08PM 40.9594 -82.1172 292° West 373 429 26,000 1,140 Climbing Cleveland Center
08:09PM 40.9994 -82.2422 293° West 373 429 27,200 1,200 Climbing Cleveland Center
08:10PM 41.0372 -82.3697 291° West 373 429 28,400 1,140 Climbing Cleveland Center
08:11PM 41.0517 -82.4939 279° West 359 413 29,500 960 Climbing Cleveland Center
08:12PM 41.0619 -82.6239 276° West 353 406 30,400 900 Climbing Cleveland Center
08:13PM 41.0722 -82.7481 276° West 353 406 31,400 960 Climbing Cleveland Center
08:14PM 41.0842 -82.8778 277° West 353 406 32,400 960 Climbing Cleveland Center
08:15PM 41.0961 -83.0050 277° West 353 406 33,400 900 Climbing Cleveland Center
08:16PM 41.1064 -83.1183 277° West 353 406 34,200 900 Climbing Cleveland Center
08:17PM 41.1161 -83.2375 276° West 346 398 35,200 900 Climbing Cleveland Center
08:18PM 41.1236 -83.3617 275° West 346 398 36,000 360 Climbing Cleveland Center
08:19PM 41.1331 -83.4833 276° West 346 398 36,000  Level Cleveland Center
08:20PM 41.1444 -83.6108 277° West 346 398 36,000  Level Cleveland Center
08:21PM 41.1575 -83.7439 277° West 357 411 36,000  Level Cleveland Center
08:22PM 41.1661 -83.8767 275° West 363 418 36,000  Level Cleveland Center
08:23PM 41.1811 -84.0100 279° West 369 425 36,000  Level Cleveland Center
08:24PM 41.1914 -84.1483 276° West 374 430 36,000  Level Cleveland Center
08:25PM 41.1986 -84.2294 277° West 379 436 36,000  Level Chicago Center
08:26PM 41.2081 -84.3714 275° West 385 443 36,000  Level Chicago Center
08:27PM 41.2183 -84.5136 276° West 388 447 36,000  Level Chicago Center
08:28PM 41.2294 -84.6578 276° West 391 450 36,000  Level Chicago Center
08:29PM 41.2392 -84.8039 275° West 396 456 36,000  Level Chicago Center
08:30PM 41.2492 -84.9494 275° West 396 456 36,000  Level Chicago Center
08:31PM 41.2597 -85.0986 275° West 403 464 36,000  Level Chicago Center
08:32PM 41.2700 -85.2483 275° West 404 465 36,000  Level Chicago Center
08:33PM 41.2814 -85.4283 275° West 406 467 36,000  Level Chicago Center
08:34PM 41.2906 -85.5808 275° West 409 471 36,000  Level Chicago Center
08:35PM 41.3008 -85.7322 275° West 409 471 36,000  Level Chicago Center
08:36PM 41.3092 -85.8836 274° West 408 470 36,000  Level Chicago Center
08:37PM 41.3175 -86.0319 274° West 404 465 36,000  Level Chicago Center
08:38PM 41.3269 -86.1789 275° West 399 459 36,000  Level Chicago Center
08:39PM 41.3358 -86.3256 275° West 399 459 36,000  Level Chicago Center
08:40PM 41.3464 -86.5017 275° West 398 458 36,000  Level Chicago Center
08:41PM 41.3544 -86.6472 274° West 393 452 36,000  Level Chicago Center
08:42PM 41.3608 -86.7839 274° West 393 452 36,000  Level Chicago Center
08:43PM 41.3697 -86.9283 275° West 393 452 36,000  Level Chicago Center
08:44PM 41.3772 -87.1019 273° West 395 455 36,000  Level Chicago Center
08:45PM 41.3864 -87.2467 275° West 394 453 36,000  Level Chicago Center
08:46PM 41.3925 -87.3925 273° West 395 455 36,000  Level Chicago Center
08:47PM 41.4000 -87.5383 274° West 396 456 36,000  Level Chicago Center
08:48PM 41.4067 -87.6833 274° West 396 456 36,000  Level Chicago Center
08:49PM 41.4136 -87.8311 274° West 400 460 36,000  Level Chicago Center
08:50PM 41.4206 -87.9908 273° West 402 463 36,000  Level Chicago Center
08:51PM 41.4275 -88.1394 274° West 403 464 36,000  Level Chicago Center
08:52PM 41.4342 -88.3156 273° West 397 457 36,000  Level Chicago Center
08:53PM 41.4394 -88.4644 273° West 402 463 36,000  Level Chicago Center
08:54PM 41.4453 -88.6122 273° West 402 463 36,000  Level Chicago Center
08:56PM 41.4508 -88.7622 273° West 406 467 36,000  Level Chicago Center
08:57PM 41.4558 -88.9119 273° West 408 470 36,000  Level Chicago Center
08:58PM 41.4611 -89.0614 273° West 406 467 36,000  Level Chicago Center
08:59PM 41.4669 -89.2122 273° West 408 470 36,000  Level Chicago Center
09:00PM 41.4731 -89.3906 273° West 402 463 36,000  Level Chicago Center
09:01PM 41.4769 -89.5381 272° West 400 460 36,000  Level Chicago Center
09:02PM 41.4825 -89.6856 273° West 399 459 36,000  Level Chicago Center
09:03PM 41.4856 -89.8328 272° West 398 458 36,000  Level Chicago Center
09:04PM 41.4897 -89.9797 272° West 398 458 36,000  Level Chicago Center
09:05PM 41.4931 -90.1267 272° West 399 459 36,000  Level Chicago Center
09:06PM 41.4986 -90.3039 272° West 399 459 36,000  Level Chicago Center
09:07PM 41.5014 -90.4528 271° West 402 463 36,000  Level Chicago Center
09:08PM 41.5058 -90.6019 272° West 404 465 36,000  Level Chicago Center
09:09PM 41.5056 -90.7583 270° West 419 482 36,000  Level Chicago Center
09:10PM 41.5089 -90.9092 272° West 410 472 36,000  Level Chicago Center
09:11PM 41.5111 -91.0611 271° West 411 473 36,000  Level Chicago Center
09:12PM 41.5139 -91.2439 271° West 413 475 36,000  Level Chicago Center
09:13PM 41.5164 -91.3847 271° West 409 471 36,000  Level Chicago Center
09:14PM 41.5189 -91.5353 271° West 409 471 36,000  Level Chicago Center
09:15PM 41.5169 -91.6842 269° West 404 465 36,000  Level Chicago Center
09:16PM 41.5119 -91.8614 268° West 401 461 36,000  Level Chicago Center
09:17PM 41.5069 -92.0083 267° West 399 459 36,000  Level Chicago Center
09:18PM 41.5008 -92.1561 267° West 400 460 36,000  Level Chicago Center
09:19PM 41.4956 -92.3008 267° West 395 455 36,000  Level Chicago Center
09:20PM 41.4894 -92.4639 267° West 395 455 36,000  Level Chicago Center
09:21PM 41.4839 -92.6067 267° West 393 452 36,000  Level Chicago Center
09:22PM 41.4817 -92.6664 267° West 394 453 36,000  Level Minneapolis Center
09:23PM 41.4750 -92.8081 266° West 390 449 36,000  Level Minneapolis Center
09:24PM 41.4692 -92.9519 267° West 392 451 36,000  Level Minneapolis Center
09:25PM 41.4633 -93.0928 267° West 389 448 36,000  Level Minneapolis Center
09:26PM 41.4569 -93.2372 267° West 392 451 36,000  Level Minneapolis Center
09:27PM 41.4489 -93.4100 266° West 393 452 36,000  Level Minneapolis Center
09:28PM 41.4431 -93.5506 267° West 389 448 36,000  Level Minneapolis Center
09:29PM 41.4417 -93.6950 269° West 393 452 36,000  Level Minneapolis Center
09:30PM 41.4611 -93.8389 280° West 399 459 36,000  Level Minneapolis Center
09:31PM 41.4775 -93.9831 279° West 399 459 36,000  Level Minneapolis Center
09:32PM 41.4906 -94.0978 279° West 397 457 36,000  Level Minneapolis Center
09:33PM 41.5117 -94.2864 279° West 393 452 36,000  Level Minneapolis Center
09:34PM 41.5281 -94.4306 279° West 392 451 36,000  Level Minneapolis Center
09:35PM 41.5444 -94.5736 279° West 391 450 36,000  Level Minneapolis Center
09:36PM 41.5611 -94.7189 279° West 394 453 36,000  Level Minneapolis Center
09:37PM 41.5794 -94.8933 278° West 396 456 36,000  Level Minneapolis Center
09:38PM 41.5936 -95.0322 278° West 383 441 36,000  Level Minneapolis Center
09:39PM 41.6089 -95.1722 278° West 381 438 36,000  Level Minneapolis Center
09:40PM 41.6231 -95.3100 278° West 376 433 36,000  Level Minneapolis Center
09:41PM 41.6375 -95.4494 278° West 379 436 36,000  Level Minneapolis Center
09:42PM 41.6511 -95.5911 277° West 383 441 36,000  Level Minneapolis Center
09:43PM 41.6656 -95.7339 278° West 387 445 36,000  Level Minneapolis Center
09:44PM 41.6789 -95.8750 277° West 387 445 36,000  Level Minneapolis Center
09:45PM 41.6967 -96.0467 278° West 390 449 36,000  Level Minneapolis Center
09:46PM 41.7106 -96.1906 277° West 393 452 36,000  Level Minneapolis Center
09:47PM 41.7239 -96.3347 277° West 393 452 36,000  Level Minneapolis Center
09:48PM 41.7361 -96.4800 276° West 396 456 36,000  Level Minneapolis Center
09:49PM 41.7253 -96.6247 264° West 395 455 36,000  Level Minneapolis Center
09:50PM 41.7128 -96.7672 263° West 389 448 36,000  Level Minneapolis Center
09:51PM 41.7022 -96.9108 264° West 390 449 36,000  Level Minneapolis Center
09:52PM 41.6875 -97.0817 263° West 388 447 36,000  Level Minneapolis Center
09:53PM 41.6747 -97.2253 263° West 389 448 36,000  Level Minneapolis Center
09:54PM 41.6636 -97.3669 264° West 387 445 36,000  Level Minneapolis Center
09:55PM 41.6494 -97.5092 262° West 387 445 36,000  Level Minneapolis Center
09:56PM 41.6386 -97.6511 264° West 385 443 36,000  Level Minneapolis Center
09:57PM 41.6261 -97.7936 263° West 386 444 36,000  Level Minneapolis Center
09:58PM 41.6111 -97.9364 262° West 388 447 36,000  Level Minneapolis Center
10:00PM 41.5989 -98.0797 264° West 389 448 36,000  Level Minneapolis Center
10:01PM 41.5836 -98.2367 263° West 390 449 36,000  Level Minneapolis Center
10:02PM 41.5703 -98.3794 263° West 390 449 36,000  Level Minneapolis Center
10:03PM 41.5581 -98.5083 263° West 387 445 36,000  Level Minneapolis Center
10:04PM 41.5408 -98.6825 263° West 392 451 36,000  Level Minneapolis Center
10:05PM 41.5236 -98.8572 263° West 396 456 36,000  Level Minneapolis Center
10:06PM 41.5089 -99.0017 262° West 394 453 36,000  Level Minneapolis Center
10:07PM 41.4944 -99.1428 262° West 391 450 36,000  Level Minneapolis Center
10:07PM 41.4883 -99.2044 262° West 381 438 36,000  Level Denver Center
10:08PM 41.4717 -99.3664 262° West 371 427 36,000  Level Denver Center
10:09PM 41.4567 -99.4972 261° West 363 418 36,000  Level Denver Center
10:10PM 41.4442 -99.6258 263° West 353 406 36,000  Level Denver Center
10:12PM 41.4300 -99.7506 261° West 344 396 36,000  Level Denver Center
10:13PM 41.4164 -99.8839 262° West 344 396 36,000  Level Denver Center
10:14PM 41.4025 -100.0097 262° West 355 409 36,000  Level Denver Center
10:15PM 41.3858 -100.1569 261° West 360 414 36,000  Level Denver Center
10:16PM 41.3722 -100.2800 262° West 356 410 36,000  Level Denver Center
10:17PM 41.3561 -100.4247 262° West 355 409 36,000  Level Denver Center
10:18PM 41.3408 -100.5478 261° West 354 407 36,000  Level Denver Center
10:19PM 41.3292 -100.6506 261° West 354 407 36,000  Level Denver Center
10:20PM 41.3106 -100.8156 262° West 356 410 36,000  Level Denver Center
10:21PM 41.2928 -100.9611 261° West 358 412 36,000  Level Denver Center
10:22PM 41.2764 -101.1028 261° West 350 403 36,000  Level Denver Center
10:23PM 41.2586 -101.2442 261° West 348 400 36,000  Level Denver Center
10:24PM 41.2436 -101.3628 260° West 344 396 36,000  Level Denver Center
10:25PM 41.2269 -101.5028 261° West 344 396 36,000  Level Denver Center
10:26PM 41.1958 -101.6214 251° West 354 407 36,000  Level Denver Center
10:27PM 41.1489 -101.7553 245° Southwest 360 414 36,000  Level Denver Center
10:28PM 41.1100 -101.8725 246° West 362 417 36,000  Level Denver Center
10:29PM 41.0567 -102.0242 245° Southwest 355 409 36,000  Level Denver Center
10:30PM 41.0183 -102.1389 246° West 357 411 36,000  Level Denver Center
10:31PM 40.9728 -102.2717 246° West 354 407 36,000  Level Denver Center
10:33PM 40.9339 -102.3833 245° Southwest 351 404 36,000  Level Denver Center
10:34PM 40.8894 -102.5119 245° Southwest 346 398 36,000  Level Denver Center
10:35PM 40.8517 -102.6231 246° West 348 400 36,000  Level Denver Center
10:36PM 40.8100 -102.7375 244° Southwest 358 412 36,000  Level Denver Center
10:37PM 40.7656 -102.8669 246° West 347 399 36,000  Level Denver Center
10:38PM 40.7322 -102.9575 244° Southwest 345 397 36,000 -180 Level Denver Center
10:39PM 40.6853 -103.0919 245° Southwest 339 390 35,700 -660 Descending Denver Center
10:40PM 40.6486 -103.1997 246° West 322 371 34,700 -1,320 Descending Denver Center
10:41PM 40.6017 -103.3275 244° Southwest 331 381 33,100 -1,800 Descending Denver Center
10:42PM 40.5600 -103.4422 244° Southwest 343 395 31,100 -1,920 Descending Denver Center
10:43PM 40.5194 -103.5594 246° West 350 403 29,200 -1,860 Descending Denver Center
10:44PM 40.4775 -103.6717 244° Southwest 338 389 27,300 -1,860 Descending Denver Center
10:45PM 40.4369 -103.7864 245° Southwest 344 396 25,500 -1,740 Descending Denver Center
10:46PM 40.3986 -103.8914 244° Southwest 311 358 23,800 -1,680 Descending Denver Center
10:47PM 40.3550 -104.0011 242° Southwest 344 396 22,100 -1,860 Descending Denver Center
10:48PM 40.2744 -104.0956 222° Southwest 364 419 20,000 -2,040 Descending Denver Center
10:49PM 40.1964 -104.1794 219° Southwest 366 421 17,900 -1,860 Descending Denver Center
10:50PM 40.1178 -104.2650 220° Southwest 368 423 16,200 -1,560 Descending Denver Center
10:51PM 40.0353 -104.3544 220° Southwest 358 412 14,800 -1,260 Descending Denver Center
10:52PM 39.9647 -104.4300 219° Southwest 322 371 13,700 -1,140 Descending Denver Center
10:52PM 39.9500 -104.4500 226° Southwest 276 318 13,300 -1,020 Descending Denver TRACON
10:53PM 39.9000 -104.5000 218° Southwest 233 268 12,400 -900 Descending Denver TRACON
10:54PM 39.8333 -104.5000 180° South 226 260 11,700 -900 Descending Denver TRACON
10:55PM 39.7833 -104.5000 180° South 188 216 10,800 -960 Descending Denver TRACON
10:56PM 39.7367 -104.5025 182° South 186 214 9,800 -1,260 Descending Denver Center
10:57PM 39.7233 -104.5711 256° West 197 227 8,500 -1,320 Descending Denver Center
10:58PM 39.7408 -104.6253 293° West 170 196 7,100 -1,080 Descending Denver Center
10:59PM 39.7783 -104.6419 341° North 144 166 6,400 -600 Descending Denver Center
11:00PM 39.8092 -104.6419 360° North 133 153 5,900 -540 Descending Denver Center
11:01PM 39.8514 -104.6419 360° North 136 157 5,400 -540 Descending Denver Center
11:03PM 39.8500 -104.6667 North  Level FlightAware Approximate
11:10PM 39.8617 -104.6732 North  Level Estimated
11:11PM 39.8617 -104.6732 North  Level Estimated